Time;durP1;ratioP1;P1;durP2;ratioP2;P2;SDS_P1;SDS_P2;PMS_P1;PMS_P2;Temp;Humidity;BMP_temperature;BMP_pressure;BME280_temperature;BME280_humidity;BME280_pressure;Samples;Min_cycle;Max_cycle;Signal;HPM_P1;HPM_P2
2023/08/17 00:02:27;;;;;;;14.30;11.80;;;;;;;23.36;70.06;99414.22;4392419;32;33197;-93
2023/08/17 00:04:55;;;;;;;16.92;13.18;;;;;;;23.22;70.54;99409.44;4392648;32;33908;-92
2023/08/17 00:07:22;;;;;;;12.10;10.88;;;;;;;23.27;70.32;99410.12;4404961;32;33729;-92
2023/08/17 00:09:50;;;;;;;15.52;11.07;;;;;;;23.34;70.09;99409.94;4392258;32;33638;-92
2023/08/17 00:12:18;;;;;;;13.50;11.45;;;;;;;23.31;69.97;99410.88;4404948;32;32652;-91
2023/08/17 00:14:46;;;;;;;14.95;11.35;;;;;;;23.34;69.79;99410.78;4392204;32;33554;-92
2023/08/17 00:17:13;;;;;;;15.40;11.45;;;;;;;23.37;69.74;99404.50;4392149;32;32728;-91
2023/08/17 00:19:41;;;;;;;16.23;13.02;;;;;;;23.37;69.56;99404.50;4403759;32;32729;-92
2023/08/17 00:22:09;;;;;;;15.18;11.98;;;;;;;23.32;69.81;99396.72;4392042;32;33297;-91
2023/08/17 00:24:37;;;;;;;16.35;12.60;;;;;;;23.42;69.34;99399.94;4379795;32;33875;-92
2023/08/17 00:27:05;;;;;;;13.15;10.93;;;;;;;23.43;69.27;99391.06;4391855;32;32862;-91
2023/08/17 00:29:34;;;;;;;14.13;12.10;;;;;;;23.37;69.50;99391.28;4404680;32;32090;-91
2023/08/17 00:32:03;;;;;;;14.75;11.48;;;;;;;23.39;69.36;99392.09;4392398;32;33022;-92
2023/08/17 00:34:31;;;;;;;14.52;12.15;;;;;;;23.38;69.34;99391.22;4392179;32;33062;-92
2023/08/17 00:36:59;;;;;;;13.40;12.00;;;;;;;23.35;69.62;99380.75;4379877;32;33309;-92
2023/08/17 00:39:27;;;;;;;15.93;13.13;;;;;;;23.35;69.76;99390.47;4404693;32;34285;-92
2023/08/17 00:41:54;;;;;;;16.92;12.88;;;;;;;23.24;69.99;99383.78;4404498;32;32758;-92
2023/08/17 00:44:22;;;;;;;16.77;12.63;;;;;;;23.18;70.35;99383.97;4404491;32;32719;-91
2023/08/17 00:46:50;;;;;;;18.15;12.68;;;;;;;23.20;70.28;99376.87;4379428;32;34278;-91
2023/08/17 00:49:18;;;;;;;15.88;12.37;;;;;;;23.23;70.30;99386.50;4404602;32;33630;-91
2023/08/17 00:51:46;;;;;;;14.95;12.57;;;;;;;23.26;69.98;99374.03;4392365;32;33309;-92
2023/08/17 00:54:15;;;;;;;14.93;12.43;;;;;;;23.25;69.72;99385.50;4379711;32;33827;-91
2023/08/17 00:56:43;;;;;;;16.55;12.45;;;;;;;23.24;69.89;99394.34;4404440;32;34232;-91
2023/08/17 00:59:11;;;;;;;14.30;12.25;;;;;;;23.14;70.18;99392.94;4404345;32;33050;-92
2023/08/17 01:01:38;;;;;;;16.37;12.63;;;;;;;23.15;70.31;99393.84;4404243;32;32294;-93
2023/08/17 01:04:07;;;;;;;16.67;12.43;;;;;;;23.19;70.13;99401.59;4404738;32;34684;-91
2023/08/17 01:06:34;;;;;;;20.35;12.80;;;;;;;23.17;70.39;99408.72;4404416;32;32324;-92
2023/08/17 01:09:04;;;;;;;17.25;12.52;;;;;;;23.16;70.55;99400.84;4392170;32;32735;-92
2023/08/17 01:11:35;;;;;;;17.05;13.02;;;;;;;23.21;70.42;99401.53;4404055;32;34414;-91
2023/08/17 01:14:28;;;;;;;16.00;13.30;;;;;;;23.46;69.35;99404.19;4404120;32;34046;-91
2023/08/17 01:17:02;;;;;;;15.35;12.40;;;;;;;23.38;69.81;99400.97;4391785;32;32873;-92
2023/08/17 01:19:29;;;;;;;16.50;12.77;;;;;;;23.34;69.77;99412.56;4403955;32;32447;-92
2023/08/17 01:22:01;;;;;;;15.77;12.93;;;;;;;23.31;69.64;99414.37;4392060;32;34322;-91
2023/08/17 01:24:29;;;;;;;14.95;12.98;;;;;;;23.18;70.14;99413.06;4379742;32;34371;-92
2023/08/17 01:26:56;;;;;;;16.92;13.77;;;;;;;23.13;70.37;99411.53;4391250;32;34468;-91
2023/08/17 01:29:25;;;;;;;15.32;13.70;;;;;;;23.20;70.05;99408.63;4391830;32;32759;-91
2023/08/17 01:32:26;;;;;;;14.93;12.13;;;;;;;23.23;69.90;99410.28;4391355;32;33954;-91
2023/08/17 01:34:58;;;;;;;13.48;12.07;;;;;;;23.31;69.72;99411.75;4379301;32;33413;-91
2023/08/17 01:37:28;;;;;;;16.55;13.40;;;;;;;23.19;69.87;99403.38;4391374;32;33093;-91
2023/08/17 01:39:58;;;;;;;19.05;13.62;;;;;;;23.10;70.22;99404.56;4391497;32;34539;-91
2023/08/17 01:42:25;;;;;;;15.20;12.82;;;;;;;23.18;69.69;99405.13;4403770;32;34700;-91
2023/08/17 01:44:54;;;;;;;16.70;12.35;;;;;;;23.09;69.90;99405.47;4403964;32;34055;-91
2023/08/17 01:47:22;;;;;;;16.98;12.90;;;;;;;23.18;69.59;99404.28;4391604;32;32696;-91
2023/08/17 01:49:50;;;;;;;19.12;13.90;;;;;;;23.26;69.10;99404.88;4391405;32;33318;-91
2023/08/17 01:52:18;;;;;;;16.50;14.13;;;;;;;23.31;69.49;99389.72;4391495;32;33899;-92
2023/08/17 01:54:46;;;;;;;19.55;13.77;;;;;;;23.08;70.29;99398.47;4403731;32;34140;-91
2023/08/17 01:57:13;;;;;;;17.33;13.30;;;;;;;23.09;70.54;99392.25;4391303;32;33170;-91
2023/08/17 01:59:41;;;;;;;16.52;14.27;;;;;;;23.23;70.17;99391.78;4391530;32;33192;-91
2023/08/17 02:02:11;;;;;;;20.58;13.43;;;;;;;23.01;71.06;99391.66;4391159;32;34316;-91
2023/08/17 02:04:39;;;;;;;18.73;14.40;;;;;;;23.14;70.76;99387.66;4391176;32;33072;-90
2023/08/17 02:07:07;;;;;;;17.12;13.00;;;;;;;23.06;71.44;99397.63;4391412;32;34352;-91
2023/08/17 02:09:34;;;;;;;21.87;14.02;;;;;;;23.06;71.44;99403.78;4391052;32;33353;-91
2023/08/17 02:12:05;;;;;;;16.37;13.80;;;;;;;22.67;73.70;99407.75;4403563;32;33888;-89
2023/08/17 02:14:33;;;;;;;19.02;13.80;;;;;;;22.73;73.02;99413.72;4391374;32;33936;-90
2023/08/17 02:17:01;;;;;;;16.73;14.63;;;;;;;22.28;74.85;99400.19;4416239;32;34266;-90
2023/08/17 02:19:28;;;;;;;18.33;14.68;;;;;;;22.31;75.20;99406.25;4390875;32;32306;-90
2023/08/17 02:21:56;;;;;;;19.70;16.30;;;;;;;22.54;74.97;99402.88;4403456;32;33151;-90
2023/08/17 02:24:24;;;;;;;19.00;14.87;;;;;;;22.65;74.76;99399.84;4403306;32;34032;-90
2023/08/17 02:26:51;;;;;;;17.00;12.82;;;;;;;22.65;74.40;99407.78;4415816;32;33597;-92
2023/08/17 02:29:19;;;;;;;18.25;14.18;;;;;;;22.31;75.05;99400.06;4403423;32;33594;-91
2023/08/17 02:31:47;;;;;;;18.10;15.23;;;;;;;22.57;74.09;99400.09;4403494;32;34029;-91
2023/08/17 02:34:15;;;;;;;21.10;14.65;;;;;;;22.82;73.37;99407.25;4403245;32;32824;-90
2023/08/17 02:36:43;;;;;;;17.10;13.85;;;;;;;22.93;73.24;99404.28;4403417;32;33751;-91
2023/08/17 02:39:11;;;;;;;14.05;12.48;;;;;;;23.09;72.65;99408.13;4390756;32;32837;-90
2023/08/17 02:41:39;;;;;;;14.70;11.57;;;;;;;23.15;72.47;99407.91;4403043;32;33606;-91
2023/08/17 02:44:06;;;;;;;16.00;11.85;;;;;;;22.88;72.06;99395.59;4404525;32;34386;-89
2023/08/17 02:46:34;;;;;;;16.77;12.82;;;;;;;22.86;71.72;99392.16;4393144;32;33565;-91
2023/08/17 02:49:02;;;;;;;16.90;13.15;;;;;;;22.77;72.18;99398.63;4418123;32;32996;-92
2023/08/17 02:51:29;;;;;;;14.93;12.45;;;;;;;23.04;71.64;99397.72;4405321;32;32521;-91
2023/08/17 02:53:57;;;;;;;19.52;12.68;;;;;;;23.14;71.54;99394.72;4417610;32;33761;-91
2023/08/17 02:56:26;;;;;;;14.60;13.15;;;;;;;23.25;71.16;99396.06;4405051;32;32741;-91
2023/08/17 02:58:53;;;;;;;17.30;13.20;;;;;;;23.10;71.75;99390.47;4405234;32;33862;-91
2023/08/17 03:01:21;;;;;;;21.87;13.23;;;;;;;23.16;71.63;99387.62;4417694;32;33377;-91
2023/08/17 03:03:49;;;;;;;18.00;13.00;;;;;;;23.24;71.29;99378.47;4417790;32;34102;-91
2023/08/17 03:06:17;;;;;;;17.37;12.57;;;;;;;23.23;71.36;99382.06;4405185;32;33246;-91
2023/08/17 03:08:44;;;;;;;14.20;11.98;;;;;;;23.33;70.81;99385.22;4392250;32;32013;-91
2023/08/17 03:11:12;;;;;;;13.82;12.18;;;;;;;23.25;70.99;99380.22;4392808;32;32713;-91
2023/08/17 03:13:40;;;;;;;16.77;12.95;;;;;;;23.20;71.32;99384.81;4392655;32;34296;-91
2023/08/17 03:16:07;;;;;;;15.70;12.85;;;;;;;23.32;70.93;99380.84;4405129;32;34281;-91
2023/08/17 03:18:36;;;;;;;14.82;12.40;;;;;;;23.25;71.04;99390.78;4405164;32;33580;-91
2023/08/17 03:21:04;;;;;;;16.05;12.85;;;;;;;23.24;70.90;99383.78;4404930;32;33225;-91
2023/08/17 03:23:32;;;;;;;18.45;12.68;;;;;;;23.33;70.60;99387.00;4392766;32;33424;-91
2023/08/17 03:26:00;;;;;;;17.23;13.95;;;;;;;23.23;70.99;99392.63;4404950;32;33602;-91
2023/08/17 03:28:27;;;;;;;17.65;11.60;;;;;;;23.29;70.67;99396.84;4405139;32;33641;-90
2023/08/17 03:30:56;;;;;;;17.85;11.85;;;;;;;23.26;70.71;99391.66;4405080;32;33419;-91
2023/08/17 03:33:25;;;;;;;15.85;12.05;;;;;;;23.31;70.58;99379.12;4392633;32;34111;-91
2023/08/17 03:35:52;;;;;;;13.77;12.32;;;;;;;;;;4404975;32;33253;-90
2023/08/17 03:38:20;;;;;;;14.30;12.80;;;;;;;23.16;70.78;99375.25;4406435;32;33606;-91
2023/08/17 03:40:48;;;;;;;15.73;12.05;;;;;;;23.16;70.85;99385.84;4405017;32;34726;-91
2023/08/17 03:43:15;;;;;;;14.13;11.20;;;;;;;23.21;70.51;99386.53;4392798;32;33336;-91
2023/08/17 03:45:44;;;;;;;18.05;12.25;;;;;;;23.31;69.92;99382.66;4405175;32;33761;-91
2023/08/17 03:48:12;;;;;;;16.25;11.55;;;;;;;23.13;70.34;99382.44;4405172;32;33002;-91
2023/08/17 03:50:39;;;;;;;15.60;12.15;;;;;;;23.04;70.48;99380.97;4404780;32;32841;-91
2023/08/17 03:53:07;;;;;;;17.70;12.13;;;;;;;23.06;70.42;99381.78;4392076;32;34290;-90
2023/08/17 03:55:35;;;;;;;12.50;11.07;;;;;;;23.03;70.35;99373.94;4392231;32;33298;-91
2023/08/17 03:58:02;;;;;;;17.12;11.38;;;;;;;23.17;69.61;99376.97;4392348;32;32632;-91
2023/08/17 04:00:30;;;;;;;12.48;10.18;;;;;;;23.20;69.50;99382.16;4392144;32;33565;-91
2023/08/17 04:02:58;;;;;;;13.77;11.02;;;;;;;23.14;69.61;99385.00;4392218;32;33858;-91
2023/08/17 04:05:27;;;;;;;14.15;10.43;;;;;;;23.07;69.78;99380.88;4392100;32;32606;-91
2023/08/17 04:07:55;;;;;;;14.35;10.30;;;;;;;23.04;69.71;99381.84;4392289;32;32743;-91
2023/08/17 04:10:22;;;;;;;14.25;12.10;;;;;;;23.02;69.71;99380.16;4404651;32;33156;-91
2023/08/17 04:12:50;;;;;;;15.23;10.82;;;;;;;22.99;69.94;99390.84;4392840;32;33000;-91
2023/08/17 04:15:18;;;;;;;13.35;10.82;;;;;;;23.12;69.23;99381.56;4379538;32;33857;-91
2023/08/17 04:17:45;;;;;;;12.95;10.80;;;;;;;23.11;69.29;99387.78;4380143;32;32967;-91
2023/08/17 04:20:13;;;;;;;13.32;10.05;;;;;;;23.00;69.75;99387.28;4404651;32;32824;-91
2023/08/17 04:22:41;;;;;;;12.30;10.10;;;;;;;23.06;69.60;99400.28;4392106;32;34623;-91
2023/08/17 04:25:09;;;;;;;14.90;10.10;;;;;;;23.06;69.56;99397.63;4404610;32;34474;-91
2023/08/17 04:27:36;;;;;;;12.07;10.10;;;;;;;23.09;69.48;99400.19;4392148;32;33331;-91
2023/08/17 04:30:04;;;;;;;15.38;10.80;;;;;;;23.04;69.77;99394.19;4404516;32;33641;-91
2023/08/17 04:32:34;;;;;;;14.10;11.90;;;;;;;23.03;69.86;99389.81;4392600;32;33033;-90
2023/08/17 04:35:02;;;;;;;13.40;10.40;;;;;;;23.09;69.89;99389.59;4404435;32;34337;-91
2023/08/17 04:37:30;;;;;;;14.18;10.95;;;;;;;23.19;69.81;99392.81;4392234;32;32637;-91
2023/08/17 04:39:58;;;;;;;12.48;11.23;;;;;;;23.10;70.34;99387.81;4405100;32;33541;-91
2023/08/17 04:42:27;;;;;;;12.68;11.27;;;;;;;23.11;70.43;99387.78;4392353;32;33636;-91
2023/08/17 04:44:54;;;;;;;14.25;11.80;;;;;;;23.09;70.65;99389.59;4392427;32;33790;-91
2023/08/17 04:47:22;;;;;;;19.75;12.73;;;;;;;23.09;70.84;99386.97;4404635;32;33424;-91
2023/08/17 04:49:51;;;;;;;22.27;12.98;;;;;;;23.10;71.09;99393.13;4391878;32;32476;-91
2023/08/17 04:52:18;;;;;;;17.87;13.73;;;;;;;23.14;71.21;99400.03;4392071;32;33606;-90
2023/08/17 04:54:46;;;;;;;15.45;13.18;;;;;;;23.10;71.41;99395.75;4404540;32;33939;-90
2023/08/17 04:57:13;;;;;;;15.25;12.68;;;;;;;23.17;71.30;99399.91;4416878;32;33112;-91
2023/08/17 04:59:41;;;;;;;18.45;13.40;;;;;;;23.22;71.31;99409.44;4391712;32;32972;-90
2023/08/17 05:02:09;;;;;;;14.50;12.30;;;;;;;23.29;71.24;99404.78;4392079;32;33042;-91
2023/08/17 05:04:39;;;;;;;14.85;11.32;;;;;;;23.46;71.18;99404.19;4404249;32;34257;-91
2023/08/17 05:07:07;;;;;;;13.60;12.00;;;;;;;23.82;70.83;99401.13;4403446;32;33892;-90
2023/08/17 05:09:35;;;;;;;15.05;12.15;;;;;;;24.16;69.82;99406.84;4416675;32;34691;-91
2023/08/17 05:12:03;;;;;;;15.68;11.77;;;;;;;24.67;67.73;99403.09;4404199;32;33431;-91
2023/08/17 05:14:31;;;;;;;15.02;11.05;;;;;;;24.46;67.96;99409.25;4404517;32;32777;-91
2023/08/17 05:16:59;;;;;;;17.52;11.12;;;;;;;24.46;68.14;99403.94;4404214;32;32964;-90
2023/08/17 05:19:27;;;;;;;16.27;11.02;;;;;;;24.70;68.26;99405.63;4404043;32;33225;-90
2023/08/17 05:21:55;;;;;;;16.83;9.68;;;;;;;25.35;67.19;99394.94;4405795;32;34990;-90
2023/08/17 05:24:23;;;;;;;13.68;9.38;;;;;;;25.16;66.37;99397.53;4405435;32;34297;-90
2023/08/17 05:26:50;;;;;;;12.90;9.15;;;;;;;25.36;66.16;99389.56;4416454;32;32668;-91
2023/08/17 05:29:18;;;;;;;12.07;9.18;;;;;;;25.16;66.29;99389.59;4404253;32;34603;-91
2023/08/17 05:31:46;;;;;;;13.70;9.65;;;;;;;25.08;66.53;99387.22;4417157;32;33610;-91
2023/08/17 05:34:14;;;;;;;13.20;9.70;;;;;;;24.97;67.21;99395.62;4405317;32;33574;-91
2023/08/17 05:36:42;;;;;;;13.75;10.93;;;;;;;24.98;67.60;99393.84;4391532;32;32370;-90
2023/08/17 05:39:10;;;;;;;13.82;12.48;;;;;;;24.60;69.10;99393.66;4404153;32;32683;-90
2023/08/17 05:41:38;;;;;;;15.25;12.80;;;;;;;24.34;70.40;99401.75;4403975;32;34058;-90
2023/08/17 05:44:09;;;;;;;16.20;12.75;;;;;;;24.62;69.21;99399.75;4405397;32;34115;-89
2023/08/17 05:46:37;;;;;;;15.90;12.68;;;;;;;24.02;71.26;99394.16;4391471;32;32962;-91
2023/08/17 05:49:05;;;;;;;16.90;12.63;;;;;;;23.96;70.91;99393.53;4403781;32;33162;-91
2023/08/17 05:51:32;;;;;;;15.40;13.93;;;;;;;24.07;71.22;99396.63;4405158;32;34702;-90
2023/08/17 05:54:00;;;;;;;20.08;12.70;;;;;;;23.74;71.72;99404.91;4403869;32;33909;-90
2023/08/17 05:56:28;;;;;;;14.20;12.40;;;;;;;23.71;72.12;99407.66;4403892;32;33192;-90
2023/08/17 05:58:55;;;;;;;14.98;11.98;;;;;;;24.14;70.56;99398.13;4405099;32;33835;-90
2023/08/17 06:01:23;;;;;;;14.68;11.63;;;;;;;24.19;70.43;99401.44;4416104;32;34628;-91
2023/08/17 06:03:51;;;;;;;15.15;11.93;;;;;;;24.15;70.05;99404.28;4403743;32;33646;-90
2023/08/17 06:06:19;;;;;;;14.55;12.07;;;;;;;24.24;69.96;99403.91;4404749;32;33421;-90
2023/08/17 06:08:47;;;;;;;17.35;12.00;;;;;;;24.27;69.88;99395.84;4404727;32;34585;-90
2023/08/17 06:11:15;;;;;;;21.35;12.48;;;;;;;24.44;69.59;99400.50;4404838;32;34965;-89
2023/08/17 06:13:42;;;;;;;16.45;11.38;;;;;;;24.42;68.77;99395.25;4403615;32;32746;-90
2023/08/17 06:16:10;;;;;;;17.10;12.02;;;;;;;24.68;66.82;99399.50;4403206;32;33270;-90
2023/08/17 06:18:38;;;;;;;14.05;12.32;;;;;;;24.63;67.74;99396.19;4405135;32;32697;-90
2023/08/17 06:21:06;;;;;;;13.43;12.02;;;;;;;24.60;69.12;99398.97;4405650;32;35154;-90
2023/08/17 06:23:34;;;;;;;17.00;12.60;;;;;;;24.67;67.85;99381.88;4418129;32;34171;-90
2023/08/17 06:26:02;;;;;;;13.98;11.70;;;;;;;24.62;68.80;99389.13;4418483;32;33006;-90
2023/08/17 06:28:29;;;;;;;16.20;11.85;;;;;;;24.94;66.95;99381.66;4406670;32;33828;-90
2023/08/17 06:30:57;;;;;;;17.20;13.05;;;;;;;24.61;67.23;99387.41;4417763;32;34109;-90
2023/08/17 06:33:25;;;;;;;17.65;13.40;;;;;;;24.39;69.60;99383.91;4405328;32;33900;-90
2023/08/17 06:35:52;;;;;;;14.18;12.68;;;;;;;24.55;70.35;99393.00;4380405;32;33505;-90
2023/08/17 06:38:20;;;;;;;16.23;12.55;;;;;;;24.49;69.40;99382.63;4417850;32;33216;-91
2023/08/17 06:40:48;;;;;;;16.30;12.35;;;;;;;24.41;69.95;99377.63;4405382;32;33859;-91
2023/08/17 06:43:15;;;;;;;17.12;12.77;;;;;;;24.56;67.58;99370.84;4405336;32;34508;-90
2023/08/17 06:45:45;;;;;;;15.80;12.95;;;;;;;24.68;67.81;99370.34;4404862;32;32371;-92
2023/08/17 06:48:13;;;;;;;14.40;12.90;;;;;;;24.45;68.89;99375.72;4392723;32;33048;-90
2023/08/17 06:50:40;;;;;;;16.95;13.70;;;;;;;24.49;68.71;99382.63;4380172;32;34594;-91
2023/08/17 06:53:08;;;;;;;15.80;13.07;;;;;;;24.48;68.24;99375.59;4406501;32;33594;-91
2023/08/17 06:55:36;;;;;;;17.15;12.55;;;;;;;24.59;68.20;99372.53;4405415;32;33979;-90
2023/08/17 06:58:03;;;;;;;16.45;11.80;;;;;;;25.13;65.01;99368.47;4406463;32;33977;-91
2023/08/17 07:00:31;;;;;;;16.70;13.23;;;;;;;24.75;66.66;99365.66;4405023;32;32418;-89
2023/08/17 07:02:59;;;;;;;14.63;12.48;;;;;;;25.08;63.99;99363.34;4405290;32;32537;-91
2023/08/17 07:05:28;;;;;;;15.23;12.80;;;;;;;25.16;64.61;99363.06;4405562;32;32159;-89
2023/08/17 07:07:57;;;;;;;23.52;12.70;;;;;;;25.10;64.63;99374.78;4405212;32;33041;-90
2023/08/17 07:10:25;;;;;;;16.75;12.27;;;;;;;25.48;63.21;99377.53;4405524;32;34304;-90
2023/08/17 07:12:53;;;;;;;14.35;12.30;;;;;;;25.63;64.72;99382.16;4392820;32;32545;-93
2023/08/17 07:15:20;;;;;;;15.02;13.00;;;;;;;26.00;62.94;99380.47;4405247;32;32752;-94
2023/08/17 07:17:48;;;;;;;18.17;12.05;;;;;;;25.71;62.97;99387.09;4406910;32;33404;-90
2023/08/17 07:20:15;;;;;;;14.05;11.43;;;;;;;25.28;62.09;99398.78;4406822;32;34340;-89
2023/08/17 07:22:44;;;;;;;13.93;10.57;;;;;;;25.08;62.29;99389.00;4405331;32;33733;-91
2023/08/17 07:25:11;;;;;;;15.07;12.00;;;;;;;25.26;62.42;99392.69;4405320;32;32244;-90
2023/08/17 07:27:39;;;;;;;16.15;12.05;;;;;;;25.22;61.90;99392.81;4404982;32;33419;-89
2023/08/17 07:30:07;;;;;;;13.38;11.98;;;;;;;25.01;63.49;99385.75;4404604;32;32943;-90
2023/08/17 07:32:35;;;;;;;15.55;12.00;;;;;;;24.81;64.59;99393.69;4406244;32;33575;-88
2023/08/17 07:35:03;;;;;;;14.60;12.07;;;;;;;24.83;63.66;99375.94;4405314;32;32103;-89
2023/08/17 07:37:33;;;;;;;16.60;12.37;;;;;;;24.83;62.97;99386.53;4405178;32;33836;-89
2023/08/17 07:40:04;;;;;;;16.55;12.95;;;;;;;24.75;64.75;99386.84;4406365;32;34884;-91
2023/08/17 07:42:32;;;;;;;14.38;12.15;;;;;;;25.04;64.69;99385.63;4406478;32;34017;-89
2023/08/17 07:45:04;;;;;;;19.27;11.93;;;;;;;24.90;63.78;99393.31;4417510;32;33321;-89
2023/08/17 07:47:34;;;;;;;15.48;12.93;;;;;;;25.15;63.16;99388.69;4417186;32;33826;-89
2023/08/17 07:50:02;;;;;;;16.95;13.43;;;;;;;24.58;64.39;99400.78;4405050;32;33687;-89
2023/08/17 07:52:29;;;;;;;15.02;12.20;;;;;;;24.43;64.86;99396.97;4392630;32;34566;-89
2023/08/17 07:54:57;;;;;;;15.88;12.30;;;;;;;24.74;64.45;99399.25;4405429;32;32682;-89
2023/08/17 07:57:25;;;;;;;16.52;13.07;;;;;;;24.76;65.15;99402.69;4392131;32;33333;-91
2023/08/17 07:59:53;;;;;;;14.02;12.15;;;;;;;24.74;64.30;99404.56;4406193;32;34539;-89
2023/08/17 08:02:21;;;;;;;17.17;12.65;;;;;;;24.41;65.30;99405.94;4392627;32;33339;-88
2023/08/17 08:04:49;;;;;;;16.30;11.30;;;;;;;24.47;65.51;99401.25;4417545;32;33007;-88
2023/08/17 08:07:17;;;;;;;14.02;10.18;;;;;;;24.57;63.53;99398.22;4392422;32;32291;-89
2023/08/17 08:09:44;;;;;;;14.30;10.68;;;;;;;24.49;64.73;99404.69;4417685;32;34610;-96
2023/08/17 08:12:12;;;;;;;12.35;9.18;;;;;;;24.39;62.07;99402.47;4404589;32;34383;-89
2023/08/17 08:14:39;;;;;;;11.70;9.07;;;;;;;24.48;61.48;99395.03;4392094;32;32585;-89
2023/08/17 08:17:07;;;;;;;12.25;9.38;;;;;;;24.71;61.14;99401.19;4417318;32;34471;-89
2023/08/17 08:19:35;;;;;;;13.65;10.57;;;;;;;24.46;61.45;99396.00;4417385;32;33652;-89
2023/08/17 08:22:02;;;;;;;11.68;9.27;;;;;;;24.79;61.20;99387.59;4405973;32;34620;-89
2023/08/17 08:24:33;;;;;;;12.65;9.50;;;;;;;24.99;60.45;99388.47;4406093;32;33382;-89
2023/08/17 08:27:05;;;;;;;12.85;9.68;;;;;;;25.08;62.74;99394.28;4405877;32;34496;-88
2023/08/17 08:29:33;;;;;;;16.05;9.82;;;;;;;25.02;59.56;99397.22;4406060;32;34072;-89
2023/08/17 08:32:02;;;;;;;11.95;10.13;;;;;;;24.97;60.00;99392.13;4392251;32;33365;-91
2023/08/17 08:34:30;;;;;;;14.23;10.02;;;;;;;24.84;61.12;99394.41;4406040;32;33383;-89
2023/08/17 08:36:58;;;;;;;14.77;10.35;;;;;;;25.14;58.72;99389.63;4417206;32;33709;-88
2023/08/17 08:39:26;;;;;;;15.27;9.15;;;;;;;25.29;59.43;99395.19;4405548;32;34083;-89
2023/08/17 08:41:55;;;;;;;15.55;9.60;;;;;;;25.35;60.16;99394.94;4403456;32;34235;-89
2023/08/17 08:44:22;;;;;;;15.95;9.00;;;;;;;25.42;59.74;99396.38;4379792;32;34318;-89
2023/08/17 08:46:51;;;;;;;16.87;9.48;;;;;;;25.94;57.02;99383.41;4417295;32;33914;-89
2023/08/17 08:49:20;;;;;;;11.02;9.52;;;;;;;25.78;58.78;99387.69;4417283;32;33981;-89
2023/08/17 08:51:50;;;;;;;14.50;9.50;;;;;;;25.58;58.00;99385.97;4417249;32;34941;-88
2023/08/17 08:54:25;;;;;;;13.27;10.35;;;;;;;25.68;58.75;99395.19;4392184;32;32825;-88
2023/08/17 08:56:59;;;;;;;11.07;8.18;;;;;;;26.02;58.14;99381.25;4404325;32;34084;-89
2023/08/17 08:59:28;;;;;;;7.93;6.32;;;;;;;25.90;58.96;99384.50;4417090;32;33905;-94
2023/08/17 09:01:57;;;;;;;11.93;6.10;;;;;;;26.02;56.57;99388.38;4404423;32;34130;-88
2023/08/17 09:04:25;;;;;;;10.07;6.53;;;;;;;25.85;57.60;99389.16;4404842;32;33363;-93
2023/08/17 09:06:54;;;;;;;10.10;7.15;;;;;;;25.62;57.20;99387.53;4417202;32;34667;-89
2023/08/17 09:09:22;;;;;;;11.43;6.55;;;;;;;25.64;56.82;99386.50;4416762;32;34578;-91
2023/08/17 09:11:56;;;;;;;8.75;6.30;;;;;;;25.58;57.90;99392.13;4380858;32;34103;-89
2023/08/17 09:14:24;;;;;;;8.65;6.12;;;;;;;25.47;57.47;99381.97;4417102;32;33462;-88
2023/08/17 09:16:51;;;;;;;8.50;6.03;;;;;;;25.59;57.35;99387.66;4404357;32;32976;-88
2023/08/17 09:19:20;;;;;;;9.20;5.78;;;;;;;25.84;55.84;99384.81;4404154;32;34087;-91
2023/08/17 09:21:47;;;;;;;7.35;5.78;;;;;;;25.96;55.27;99386.88;4404317;32;33883;-88
2023/08/17 09:24:18;;;;;;;7.70;6.45;;;;;;;25.70;56.13;99380.06;4405638;32;33838;-88
2023/08/17 09:26:49;;;;;;;10.98;6.53;;;;;;;25.86;57.95;99372.28;4405001;32;34784;-86
2023/08/17 09:29:18;;;;;;;7.87;6.12;;;;;;;25.97;57.98;99375.31;4404438;32;34028;-86
2023/08/17 09:31:49;;;;;;;7.82;5.93;;;;;;;25.93;57.96;99376.37;4404548;32;34622;-86
2023/08/17 09:34:18;;;;;;;8.93;5.95;;;;;;;25.83;56.15;99370.63;4404296;32;33600;-86
2023/08/17 09:36:47;;;;;;;7.50;5.80;;;;;;;26.18;55.46;99366.34;4392002;32;33543;-86
2023/08/17 09:39:18;;;;;;;8.45;6.00;;;;;;;25.94;57.05;99365.69;4404151;32;32528;-86
2023/08/17 09:41:46;;;;;;;7.72;5.97;;;;;;;26.20;56.41;99369.75;4391785;32;33107;-86
2023/08/17 09:44:13;;;;;;;7.95;5.22;;;;;;;26.33;58.95;99369.16;4405401;32;34340;-86
2023/08/17 09:46:44;;;;;;;10.57;4.97;;;;;;;26.38;55.19;99365.34;4405385;32;33622;-86
2023/08/17 09:49:12;;;;;;;7.43;5.35;;;;;;;26.33;55.85;99361.19;4405176;32;34110;-86
2023/08/17 09:51:43;;;;;;;7.93;5.18;;;;;;;26.60;55.18;99359.88;4417178;32;34853;-86
2023/08/17 09:54:21;;;;;;;7.85;5.22;;;;;;;26.83;52.50;99353.41;4408897;32;32776;-86
2023/08/17 09:56:53;;;;;;;7.75;5.10;;;;;;;26.53;53.84;99353.13;4421598;32;34437;-86
2023/08/17 09:59:21;;;;;;;7.65;5.45;;;;;;;26.57;53.50;99353.84;4408857;32;34010;-86
2023/08/17 10:01:49;;;;;;;8.45;5.78;;;;;;;26.81;52.09;99359.72;4410264;32;34082;-86
2023/08/17 10:04:24;;;;;;;8.80;5.82;;;;;;;26.65;53.47;99344.53;4420895;32;33264;-86
2023/08/17 10:06:58;;;;;;;9.05;5.53;;;;;;;26.64;52.63;99342.84;4408742;32;33192;-86
2023/08/17 10:09:31;;;;;;;9.60;5.97;;;;;;;26.78;54.13;99346.56;4396255;32;34166;-86
2023/08/17 10:12:11;;;;;;;8.10;6.07;;;;;;;27.01;52.49;99340.97;4409058;32;33282;-90
2023/08/17 10:14:46;;;;;;;9.52;5.60;;;;;;;26.85;52.92;99348.00;4410154;32;33813;-86
2023/08/17 10:17:19;;;;;;;10.57;5.68;;;;;;;26.53;52.72;99345.16;4396094;32;33782;-86
2023/08/17 10:19:52;;;;;;;7.95;5.62;;;;;;;26.44;53.31;99345.56;4408753;32;34103;-86
2023/08/17 10:22:26;;;;;;;9.57;5.70;;;;;;;26.51;54.32;99341.72;4409735;32;33572;-86
2023/08/17 10:24:57;;;;;;;8.10;6.43;;;;;;;26.80;56.83;99342.91;4409872;32;33021;-86
2023/08/17 10:27:25;;;;;;;6.75;5.45;;;;;;;26.78;54.18;99346.56;4421030;32;32690;-88
2023/08/17 10:29:53;;;;;;;9.80;5.82;;;;;;;27.19;51.99;99338.28;4421051;32;35024;-86
2023/08/17 10:32:22;;;;;;;7.85;5.28;;;;;;;27.04;53.23;99343.44;4421038;32;34552;-87
2023/08/17 10:34:51;;;;;;;8.55;5.87;;;;;;;27.36;52.88;99343.59;4395957;32;33300;-87
2023/08/17 10:37:20;;;;;;;10.00;5.53;;;;;;;27.39;53.12;99332.78;4408271;32;33320;-89
2023/08/17 10:39:48;;;;;;;7.07;4.62;;;;;;;27.79;52.24;99344.81;4396061;32;34139;-86
2023/08/17 10:42:36;;;;;;;7.32;5.00;;;;;;;27.40;52.17;99334.50;4409702;32;34517;-86
2023/08/17 10:45:21;;;;;;;8.75;5.87;;;;;;;27.55;52.46;99344.31;4408405;32;33785;-88
2023/08/17 10:47:49;;;;;;;7.82;5.32;;;;;;;27.63;51.73;99343.91;4409369;32;33519;-88
2023/08/17 10:50:24;;;;;;;8.02;5.18;;;;;;;27.94;50.45;99342.25;4408636;32;34744;-86
2023/08/17 10:52:53;;;;;;;11.10;5.68;;;;;;;28.07;50.66;99341.47;4408335;32;32873;-86
2023/08/17 10:55:37;;;;;;;8.68;5.12;;;;;;;28.01;50.41;99341.81;4408134;32;32411;-86
2023/08/17 10:58:04;;;;;;;8.80;4.75;;;;;;;28.55;51.76;99328.09;4420674;32;33148;-87
2023/08/17 11:00:36;;;;;;;8.95;5.40;;;;;;;28.59;50.82;99335.81;4409087;32;33817;-87
2023/08/17 11:03:05;;;;;;;6.85;5.28;;;;;;;28.76;49.64;99331.31;4408898;32;34292;-86
2023/08/17 11:05:53;;;;;;;8.15;5.50;;;;;;;28.72;49.40;99335.97;4404690;32;33432;-86
2023/08/17 11:08:28;;;;;;;7.95;5.60;;;;;;;27.92;50.48;99339.69;4404878;32;33963;-89
2023/08/17 11:11:12;;;;;;;8.43;5.30;;;;;;;28.13;51.51;99340.25;4404572;32;32967;-88
2023/08/17 11:13:41;;;;;;;9.02;5.30;;;;;;;27.97;52.21;99328.75;4403785;32;33446;-89
2023/08/17 11:16:10;;;;;;;8.60;5.60;;;;;;;28.22;50.15;99329.06;4402459;32;33226;-88
2023/08/17 11:18:41;;;;;;;8.77;5.75;;;;;;;28.41;50.37;99331.56;4405332;32;33419;-87
2023/08/17 11:21:10;;;;;;;10.80;6.40;;;;;;;27.92;50.92;99334.34;4417348;32;33956;-88
2023/08/17 11:23:37;;;;;;;10.80;6.00;;;;;;;27.92;53.15;99330.78;4406068;32;34707;-85
2023/08/17 11:26:06;;;;;;;7.72;5.75;;;;;;;28.05;51.25;99335.38;4404454;32;31994;-92
2023/08/17 11:28:38;;;;;;;7.28;5.82;;;;;;;27.92;52.51;99336.13;4417225;32;34361;-88
2023/08/17 11:31:10;;;;;;;7.35;5.62;;;;;;;27.78;52.13;99332.44;4405953;32;33429;-86